createdAt,value
2022-09-01T00:00:49.134Z,81.90
2022-09-01T00:05:49.918Z,82.50
2022-09-01T00:10:48.339Z,82.60
2022-09-01T00:15:48.311Z,82.50
2022-09-01T00:20:46.672Z,82.40
2022-09-01T00:25:44.999Z,83.20
2022-09-01T00:30:43.384Z,83.30
2022-09-01T00:35:43.084Z,82.70
2022-09-01T00:40:41.501Z,83.20
2022-09-01T00:45:39.780Z,83.50
2022-09-01T00:50:39.012Z,83.30
2022-09-01T00:55:39.481Z,83.40
2022-09-01T01:00:41.954Z,84.40
2022-09-01T01:05:48.211Z,84.20
2022-09-01T01:10:47.798Z,84.60
2022-09-01T01:15:46.419Z,84.60
2022-09-01T01:21:02.356Z,84.70
2022-09-01T01:26:02.339Z,84.10
2022-09-01T01:31:03.115Z,85.30
2022-09-01T01:36:01.916Z,85.70
2022-09-01T01:41:02.514Z,85.90
2022-09-01T01:46:02.910Z,85.90
2022-09-01T01:51:07.614Z,86.20
2022-09-01T01:56:09.032Z,86.10
2022-09-01T02:01:10.861Z,86.60
2022-09-01T02:06:11.936Z,86.30
2022-09-01T02:11:13.595Z,86.70
2022-09-01T02:16:13.437Z,86.80
2022-09-01T02:21:19.620Z,86.40
2022-09-01T02:26:23.725Z,86.20
2022-09-01T02:31:23.077Z,86.60
2022-09-01T02:36:22.008Z,86.40
2022-09-01T02:41:23.783Z,86.50
2022-09-01T02:46:24.334Z,86.40
2022-09-01T02:51:26.221Z,86.20
2022-09-01T02:56:27.466Z,86.30
2022-09-01T03:01:30.209Z,86.50
2022-09-01T03:06:31.501Z,86.70
2022-09-01T03:11:34.576Z,87.10
2022-09-01T03:16:33.188Z,87.60
2022-09-01T03:21:32.654Z,87.30
2022-09-01T03:26:32.904Z,87.90
2022-09-01T03:31:32.047Z,88.30
2022-09-01T03:36:34.416Z,88.30
2022-09-01T03:41:37.007Z,88.00
2022-09-01T03:46:37.177Z,88.20
2022-09-01T03:51:38.967Z,88.40
2022-09-01T03:56:41.322Z,88.60
2022-09-01T04:01:44.654Z,88.90
2022-09-01T04:06:45.507Z,88.50
2022-09-01T04:11:47.076Z,89.10
2022-09-01T04:17:06.065Z,89.20
2022-09-01T04:22:06.013Z,89.10
2022-09-01T04:27:11.603Z,89.40
2022-09-01T04:32:12.813Z,89.20
2022-09-01T04:37:18.212Z,89.80
2022-09-01T04:42:19.066Z,89.80
2022-09-01T04:47:19.820Z,90.30
2022-09-01T04:52:18.395Z,90.20
2022-09-01T04:57:18.191Z,90.00
2022-09-01T05:02:17.915Z,90.00
2022-09-01T05:07:17.348Z,89.70
2022-09-01T05:12:23.003Z,89.50
2022-09-01T05:17:21.607Z,90.00
2022-09-01T05:22:22.265Z,90.20
2022-09-01T05:27:32.476Z,90.40
2022-09-01T05:32:32.361Z,90.70
2022-09-01T05:37:30.648Z,90.70
2022-09-01T05:42:29.160Z,91.30
2022-09-01T05:47:29.995Z,91.50
2022-09-01T05:52:31.658Z,91.90
2022-09-01T05:57:34.612Z,91.90
2022-09-01T06:02:37.807Z,92.70
2022-09-01T06:07:38.114Z,92.50
2022-09-01T06:12:37.476Z,94.60
2022-09-01T06:17:37.945Z,94.60
2022-09-01T06:22:36.768Z,95.80
2022-09-01T06:27:38.799Z,94.50
2022-09-01T06:32:39.025Z,94.90
2022-09-01T06:37:38.243Z,94.80
2022-09-01T06:42:37.872Z,96.00
2022-09-01T06:47:38.009Z,94.50
2022-09-01T06:58:12.975Z,95.00
2022-09-01T07:03:18.101Z,94.20
2022-09-01T07:09:19.005Z,93.80
2022-09-01T07:14:18.967Z,93.50
2022-09-01T07:19:18.891Z,93.60
2022-09-01T07:24:26.614Z,92.80
2022-09-01T07:29:48.057Z,92.10
2022-09-01T07:34:49.150Z,90.60
2022-09-01T07:39:49.879Z,90.10
2022-09-01T07:45:26.150Z,89.10
2022-09-01T07:50:41.354Z,87.10
2022-09-01T07:55:51.197Z,85.70
2022-09-01T08:00:51.306Z,85.60
2022-09-01T08:05:55.697Z,83.90
2022-09-01T08:10:55.210Z,84.00
2022-09-01T08:16:08.564Z,82.60
2022-09-01T08:21:09.870Z,82.10
2022-09-01T08:26:28.080Z,82.50
2022-09-01T08:31:30.691Z,81.00
2022-09-01T08:36:32.582Z,79.40
2022-09-01T08:41:59.334Z,77.60
2022-09-01T08:47:03.576Z,77.60
2022-09-01T08:52:12.531Z,76.70
2022-09-01T08:57:15.863Z,75.90
2022-09-01T09:02:47.902Z,75.50
2022-09-01T09:08:07.154Z,73.80
2022-09-01T09:13:13.390Z,73.30
2022-09-01T09:18:38.297Z,74.40
2022-09-01T09:23:47.906Z,67.80
2022-09-01T09:28:48.015Z,67.20
2022-09-01T09:33:51.761Z,68.60
2022-09-01T09:39:10.133Z,69.10
2022-09-01T09:44:23.507Z,64.00
2022-09-01T09:49:34.977Z,64.40
2022-09-01T09:54:38.906Z,65.20
2022-09-01T09:59:57.542Z,66.30
2022-09-01T10:04:58.939Z,66.40
2022-09-01T10:10:01.577Z,63.10
2022-09-01T10:15:11.872Z,61.30
2022-09-01T10:20:17.046Z,59.40
2022-09-01T10:25:20.690Z,59.80
2022-09-01T10:30:21.002Z,59.90
2022-09-01T10:35:24.452Z,59.20
2022-09-01T10:40:43.831Z,58.90
2022-09-01T10:45:44.030Z,58.20
2022-09-01T10:50:42.314Z,59.00
2022-09-01T10:55:46.001Z,57.80
2022-09-01T11:06:12.274Z,56.70
2022-09-01T11:11:24.391Z,58.00
2022-09-01T11:16:50.839Z,57.70
2022-09-01T11:21:49.701Z,56.50
2022-09-01T11:26:51.240Z,56.80
2022-09-01T11:31:49.848Z,56.40
2022-09-01T11:36:54.529Z,55.40
2022-09-01T11:42:04.520Z,54.60
2022-09-01T11:47:09.483Z,55.20
2022-09-01T11:52:17.677Z,56.20
2022-09-01T11:57:24.740Z,56.60
2022-09-01T12:02:27.059Z,56.90
2022-09-01T12:07:42.571Z,57.10
2022-09-01T12:12:42.191Z,56.10
2022-09-01T12:17:40.474Z,57.00
2022-09-01T12:22:38.716Z,57.00
2022-09-01T12:27:37.052Z,56.40
2022-09-01T12:32:36.730Z,56.10
2022-09-01T12:37:35.068Z,56.30
2022-09-01T12:42:41.578Z,56.80
2022-09-01T12:47:50.418Z,57.30
2022-09-01T12:52:52.465Z,56.50
2022-09-01T12:57:53.415Z,54.20
2022-09-01T13:03:08.252Z,54.30
2022-09-01T13:08:09.349Z,55.00
2022-09-01T13:13:08.676Z,54.60
2022-09-01T13:18:08.345Z,54.10
2022-09-01T13:23:06.840Z,53.90
2022-09-01T13:28:06.666Z,54.30
2022-09-01T13:33:21.001Z,54.60
2022-09-01T13:38:24.058Z,55.10
2022-09-01T13:43:27.166Z,55.30
2022-09-01T13:49:02.168Z,56.10
2022-09-01T13:53:45.024Z,55.50
2022-09-01T13:58:43.265Z,56.10
2022-09-01T14:03:47.868Z,56.20
2022-09-01T14:08:51.150Z,56.50
2022-09-01T14:13:49.630Z,56.60
2022-09-01T14:18:47.827Z,56.60
2022-09-01T14:23:46.769Z,56.60
2022-09-01T14:28:48.616Z,56.40
2022-09-01T14:33:47.260Z,57.10
2022-09-01T14:38:45.478Z,57.40
2022-09-01T14:43:43.994Z,56.90
2022-09-01T14:48:43.694Z,57.10
2022-09-01T14:53:41.972Z,57.40
2022-09-01T14:58:42.251Z,58.60
2022-09-01T15:03:40.505Z,59.20
2022-09-01T15:08:40.276Z,59.40
2022-09-01T15:13:39.071Z,59.00
2022-09-01T15:18:37.374Z,58.90
2022-09-01T15:23:36.072Z,59.00
2022-09-01T15:28:35.715Z,59.20
2022-09-01T15:33:34.075Z,59.40
2022-09-01T15:38:34.597Z,59.80
2022-09-01T15:43:35.755Z,60.20
2022-09-01T15:48:34.948Z,60.90
2022-09-01T15:53:33.361Z,60.20
2022-09-01T15:58:44.491Z,60.10
2022-09-01T16:03:50.545Z,60.40
2022-09-01T16:08:48.897Z,59.90
2022-09-01T16:13:47.530Z,60.50
2022-09-01T16:18:54.169Z,59.90
2022-09-01T16:23:53.633Z,60.40
2022-09-01T16:28:55.331Z,60.10
2022-09-01T16:34:00.281Z,59.80
2022-09-01T16:39:08.412Z,60.10
2022-09-01T16:44:20.573Z,60.80
2022-09-01T16:49:28.079Z,60.70
2022-09-01T16:54:33.024Z,61.10
2022-09-01T16:59:37.796Z,61.30
2022-09-01T17:04:43.222Z,61.20
2022-09-01T17:09:43.990Z,61.50
2022-09-01T17:14:49.477Z,61.70
2022-09-01T17:19:52.675Z,62.10
2022-09-01T17:24:55.207Z,61.70
2022-09-01T17:29:57.158Z,61.90
2022-09-01T17:35:07.865Z,62.50
2022-09-01T17:40:15.340Z,62.30
2022-09-01T17:45:25.131Z,62.20
2022-09-01T17:50:32.259Z,62.90
2022-09-01T17:55:43.080Z,63.40
2022-09-01T18:00:47.404Z,63.00
2022-09-01T18:05:54.072Z,64.10
2022-09-01T18:10:57.509Z,64.80
2022-09-01T18:16:00.452Z,64.50
2022-09-01T18:21:05.738Z,63.70
2022-09-01T18:26:10.830Z,65.00
2022-09-01T18:31:24.109Z,65.60
2022-09-01T18:36:34.189Z,66.10
2022-09-01T18:41:41.121Z,66.40
2022-09-01T18:46:49.524Z,67.20
2022-09-01T18:52:05.437Z,67.90
2022-09-01T18:57:05.995Z,67.20
2022-09-01T19:02:19.618Z,67.60
2022-09-01T19:07:26.215Z,68.10
2022-09-01T19:12:31.289Z,68.40
2022-09-01T19:17:50.089Z,68.70
2022-09-01T19:22:56.323Z,68.90
2022-09-01T19:28:02.355Z,69.40
2022-09-01T19:33:03.562Z,70.10
2022-09-01T19:38:06.122Z,70.30
2022-09-01T19:43:07.721Z,70.10
2022-09-01T19:48:15.677Z,70.80
2022-09-01T19:53:29.312Z,71.20
2022-09-01T19:58:35.896Z,71.80
2022-09-01T20:03:37.708Z,71.20
2022-09-01T20:08:42.948Z,70.90
2022-09-01T20:14:08.039Z,71.60
2022-09-01T20:19:11.542Z,71.60
2022-09-01T20:24:18.967Z,72.00
2022-09-01T20:29:23.801Z,72.50
2022-09-01T20:34:30.491Z,72.30
2022-09-01T20:39:57.277Z,72.40
2022-09-01T20:44:59.522Z,72.50
2022-09-01T20:50:00.189Z,72.90
2022-09-01T20:55:05.661Z,72.80
2022-09-01T21:00:10.583Z,72.70
2022-09-01T21:05:22.506Z,73.20
2022-09-01T21:10:29.115Z,73.20
2022-09-01T21:15:37.771Z,73.40
2022-09-01T21:20:45.768Z,74.10
2022-09-01T21:25:46.086Z,74.10
2022-09-01T21:30:44.543Z,74.40
2022-09-01T21:35:43.004Z,74.00
2022-09-01T21:40:42.552Z,74.40
2022-09-01T21:45:42.507Z,75.10
2022-09-01T21:50:41.066Z,74.90
2022-09-01T21:55:39.454Z,75.20
2022-09-01T22:00:40.185Z,75.10
2022-09-01T22:05:42.416Z,75.50
2022-09-01T22:10:44.763Z,75.30
2022-09-01T22:15:45.063Z,75.20
2022-09-01T22:20:45.631Z,75.40
2022-09-01T22:25:46.420Z,75.40
2022-09-01T22:30:46.720Z,75.60
2022-09-01T22:35:49.102Z,76.30
2022-09-01T22:40:48.895Z,76.40
2022-09-01T22:45:48.190Z,76.30
2022-09-01T22:50:49.135Z,77.00
2022-09-01T22:55:52.269Z,77.00
2022-09-01T23:00:52.533Z,77.40
2022-09-01T23:06:02.467Z,77.60
2022-09-01T23:11:01.064Z,77.50
2022-09-01T23:16:00.519Z,78.70
2022-09-01T23:21:01.183Z,78.10
2022-09-01T23:26:01.359Z,78.90
2022-09-01T23:30:59.862Z,78.60
2022-09-01T23:36:00.068Z,79.30
2022-09-01T23:40:58.811Z,79.20
2022-09-01T23:45:58.103Z,79.20
2022-09-01T23:50:59.944Z,79.50
2022-09-01T23:56:00.640Z,79.40
